Time;durP1;ratioP1;P1;durP2;ratioP2;P2;SDS_P1;SDS_P2;PMS_P1;PMS_P2;Temp;Humidity;BMP_temperature;BMP_pressure;BME280_temperature;BME280_humidity;BME280_pressure;Samples;Min_cycle;Max_cycle;Signal;HPM_P1;HPM_P2
2023/02/07 00:00:23;;;;;;;13.13;10.20;;;;;;;0.48;63.91;97341.03;6052007;23;20619;-84
2023/02/07 00:02:50;;;;;;;12.67;10.50;;;;;;;0.53;63.95;97338.28;6046699;23;20291;-82
2023/02/07 00:05:16;;;;;;;11.87;10.53;;;;;;;0.57;63.61;97332.19;6066730;23;20176;-81
2023/02/07 00:07:44;;;;;;;13.17;10.60;;;;;;;0.57;63.94;97338.09;6067471;23;20220;-82
2023/02/07 00:10:10;;;;;;;13.43;11.47;;;;;;;0.59;63.60;97330.38;6068341;23;20187;-81
2023/02/07 00:12:37;;;;;;;12.23;10.73;;;;;;;0.61;63.57;97328.59;6067380;23;20712;-82
2023/02/07 00:15:04;;;;;;;15.83;11.10;;;;;;;0.53;63.91;97330.69;6078352;23;20208;-81
2023/02/07 00:17:31;;;;;;;14.87;11.40;;;;;;;0.50;64.42;97334.19;6080136;23;20208;-81
2023/02/07 00:19:57;;;;;;;12.80;10.97;;;;;;;0.50;64.44;97330.84;6081231;23;20185;-81
2023/02/07 00:22:23;;;;;;;15.53;11.00;;;;;;;0.52;63.92;97334.13;6080007;23;20698;-81
2023/02/07 00:24:51;;;;;;;14.07;10.93;;;;;;;0.51;64.43;97324.88;6077501;23;20197;-82
2023/02/07 00:27:18;;;;;;;14.93;11.33;;;;;;;0.49;64.24;97326.66;6073475;23;20213;-82
2023/02/07 00:29:44;;;;;;;12.93;10.90;;;;;;;0.42;64.72;97328.66;6072239;23;20196;-81
2023/02/07 00:32:11;;;;;;;12.50;10.53;;;;;;;0.43;64.40;97320.16;6069737;23;20688;-81
2023/02/07 00:34:37;;;;;;;13.07;11.17;;;;;;;0.29;65.10;97320.81;6071071;23;20197;-82
2023/02/07 00:37:04;;;;;;;14.40;10.97;;;;;;;0.10;65.65;97306.53;6070448;23;20212;-81
2023/02/07 00:39:31;;;;;;;15.07;11.13;;;;;;;-0.08;66.28;97300.56;6070529;23;20180;-81
2023/02/07 00:41:59;;;;;;;14.17;11.30;;;;;;;-0.07;66.78;97297.97;6069320;23;20232;-81
2023/02/07 00:44:25;;;;;;;13.23;10.27;;;;;;;-0.21;66.84;97300.31;6070436;23;20200;-81
2023/02/07 00:46:52;;;;;;;12.37;10.63;;;;;;;-0.18;67.27;97304.41;6070514;23;20237;-81
2023/02/07 00:49:18;;;;;;;11.90;10.60;;;;;;;-0.42;67.85;97297.03;6070182;23;20187;-82
2023/02/07 00:51:45;;;;;;;14.03;10.70;;;;;;;-0.53;68.24;97299.19;6070145;23;20233;-82
2023/02/07 00:54:11;;;;;;;16.40;10.20;;;;;;;-0.59;68.57;97301.16;6071315;23;20201;-81
2023/02/07 00:56:38;;;;;;;12.53;10.20;;;;;;;-0.62;68.47;97301.28;6069311;23;20220;-81
2023/02/07 00:59:06;;;;;;;12.10;10.33;;;;;;;-0.62;68.43;97297.06;6071004;23;20185;-81
2023/02/07 01:01:32;;;;;;;13.37;10.23;;;;;;;-0.64;68.28;97303.88;6069952;23;20232;-81
2023/02/07 01:03:59;;;;;;;12.47;10.00;;;;;;;-0.71;68.81;97307.56;6069238;23;20197;-81
2023/02/07 01:06:26;;;;;;;12.03;10.07;;;;;;;-0.82;68.68;97312.25;6070311;23;20176;-81
2023/02/07 01:08:56;;;;;;;11.87;9.70;;;;;;;-1.05;69.41;97311.50;6070388;23;20173;-81
2023/02/07 01:11:22;;;;;;;11.30;9.90;;;;;;;-1.06;69.84;97314.91;6069289;23;20643;-81
2023/02/07 01:13:49;;;;;;;12.97;10.03;;;;;;;-1.04;69.56;97319.91;6069714;23;20212;-81
2023/02/07 01:16:22;;;;;;;12.67;9.97;;;;;;;-1.02;69.68;97327.44;6069826;23;20197;-81
2023/02/07 01:18:49;;;;;;;13.80;9.23;;;;;;;-1.09;69.80;97320.09;6070055;23;20157;-81
2023/02/07 01:21:16;;;;;;;13.63;9.40;;;;;;;-1.00;69.25;97307.97;6068962;23;20380;-81
2023/02/07 01:23:43;;;;;;;12.00;9.80;;;;;;;-0.96;69.08;97324.66;6070054;23;20201;-81
2023/02/07 01:26:09;;;;;;;12.77;9.87;;;;;;;-0.76;68.59;97333.03;6070107;23;20181;-81
2023/02/07 01:28:35;;;;;;;11.60;9.50;;;;;;;-0.62;68.51;97327.41;6069167;23;20212;-81
2023/02/07 01:31:07;;;;;;;14.87;10.43;;;;;;;-0.51;67.86;97327.75;6052874;23;20208;-81
2023/02/07 01:33:35;;;;;;;10.03;8.67;;;;;;;-0.81;68.26;97340.00;6068133;23;20539;-81
2023/02/07 01:36:06;;;;;;;12.63;9.63;;;;;;;-0.85;69.10;97341.00;6069693;23;20204;-81
2023/02/07 01:38:32;;;;;;;10.47;8.73;;;;;;;-0.78;68.48;97339.06;6070064;23;20215;-81
2023/02/07 01:40:58;;;;;;;11.97;9.30;;;;;;;-0.90;68.42;97339.56;6069033;23;20180;-81
2023/02/07 01:43:25;;;;;;;10.97;9.20;;;;;;;-0.72;68.09;97343.84;6068341;23;20215;-81
2023/02/07 01:45:52;;;;;;;11.07;8.73;;;;;;;-0.79;68.04;97333.19;6054640;23;20212;-81
2023/02/07 01:48:22;;;;;;;12.97;8.87;;;;;;;-0.65;67.30;97330.06;6068075;23;20204;-81
2023/02/07 01:50:53;;;;;;;13.17;9.70;;;;;;;-0.68;67.61;97326.84;6069792;23;20165;-82
2023/02/07 01:53:22;;;;;;;11.40;8.80;;;;;;;-0.70;67.33;97324.38;6068646;23;20565;-81
2023/02/07 01:55:50;;;;;;;13.33;9.10;;;;;;;-0.63;67.18;97328.28;6037877;23;20215;-81
2023/02/07 01:58:17;;;;;;;11.13;8.87;;;;;;;-0.57;66.80;97327.19;6067572;23;20216;-81
2023/02/07 02:00:44;;;;;;;9.63;8.17;;;;;;;-0.48;66.23;97340.28;6053808;23;20260;-81
2023/02/07 02:03:11;;;;;;;12.47;9.30;;;;;;;-0.51;65.99;97329.47;6068571;23;20223;-81
2023/02/07 02:05:39;;;;;;;10.80;8.97;;;;;;;-0.43;65.98;97337.56;6069735;23;20177;-82
2023/02/07 02:08:07;;;;;;;11.53;9.83;;;;;;;-0.37;65.41;97349.94;6068527;23;20208;-81
2023/02/07 02:10:52;;;;;;;15.50;11.03;;;;;;;-0.40;65.45;97355.16;6071107;23;20176;-81
2023/02/07 02:13:28;;;;;;;12.33;8.97;;;;;;;-0.38;65.12;97344.06;6069573;23;20260;-81
2023/02/07 02:16:01;;;;;;;10.73;8.27;;;;;;;-0.55;65.16;97345.66;6070683;23;20188;-81
2023/02/07 02:18:47;;;;;;;11.47;8.87;;;;;;;-0.65;65.50;97350.31;6070046;23;20264;-81
2023/02/07 02:21:45;;;;;;;12.63;9.17;;;;;;;-0.91;66.29;97350.53;6070213;23;20188;-81
2023/02/07 02:24:37;;;;;;;11.17;9.37;;;;;;;-1.08;66.68;97356.28;6070121;23;20201;-81
2023/02/07 02:27:11;;;;;;;12.27;9.37;;;;;;;-0.99;66.59;97352.59;6069014;23;20266;-81
2023/02/07 02:30:07;;;;;;;12.70;9.13;;;;;;;-0.87;66.58;97359.66;6070230;23;20189;-81
2023/02/07 02:33:18;;;;;;;12.00;9.20;;;;;;;-0.85;66.47;97360.41;6069320;23;20679;-81
2023/02/07 02:35:57;;;;;;;12.27;8.33;;;;;;;-1.25;67.47;97356.97;6069841;23;20181;-81
2023/02/07 02:38:31;;;;;;;10.33;9.03;;;;;;;-1.35;67.55;97358.22;6069607;23;20209;-81
2023/02/07 02:41:05;;;;;;;13.43;9.77;;;;;;;-1.30;67.80;97353.78;6071383;23;20172;-81
2023/02/07 02:43:37;;;;;;;12.73;9.00;;;;;;;-1.28;67.96;97348.69;6069514;23;20212;-81
2023/02/07 02:46:10;;;;;;;11.40;9.10;;;;;;;-1.37;67.96;97362.50;6070454;23;20157;-81
2023/02/07 02:48:38;;;;;;;11.00;9.03;;;;;;;-1.51;68.40;97355.44;6069446;23;20507;-81
2023/02/07 02:51:06;;;;;;;12.93;9.00;;;;;;;-1.39;67.78;97354.16;6069653;23;20520;-81
2023/02/07 02:53:33;;;;;;;12.77;9.00;;;;;;;-1.36;67.58;97363.34;6069080;23;20284;-81
2023/02/07 02:56:29;;;;;;;11.83;9.10;;;;;;;-1.16;67.16;97368.44;6069430;23;20205;-81
2023/02/07 02:59:09;;;;;;;12.30;8.90;;;;;;;-1.15;66.49;97380.97;6070144;23;20182;-81
2023/02/07 03:01:44;;;;;;;13.53;9.50;;;;;;;-1.00;66.54;97374.50;6053894;23;20215;-81
2023/02/07 03:04:28;;;;;;;11.67;8.73;;;;;;;-1.12;65.97;97370.75;6070037;23;20200;-81
2023/02/07 03:07:08;;;;;;;12.43;9.53;;;;;;;-1.33;66.63;97378.34;6069417;23;20689;-81
2023/02/07 03:09:43;;;;;;;12.17;8.90;;;;;;;-1.27;67.34;97383.19;6069196;23;20160;-81
2023/02/07 03:12:17;;;;;;;10.83;8.73;;;;;;;-1.24;66.92;97396.53;6068500;23;20297;-81
2023/02/07 03:14:53;;;;;;;11.13;8.83;;;;;;;-1.06;66.56;97400.84;6071017;23;20203;-81
2023/02/07 03:17:25;;;;;;;11.43;9.30;;;;;;;-0.97;66.33;97399.69;6069948;23;20216;-81
2023/02/07 03:19:58;;;;;;;12.63;10.23;;;;;;;-1.18;66.14;97375.25;6054729;23;20217;-81
2023/02/07 03:22:28;;;;;;;11.23;9.17;;;;;;;-1.28;66.86;97379.81;6069406;23;20209;-81
2023/02/07 03:24:57;;;;;;;13.27;9.70;;;;;;;-1.30;66.94;97380.75;6069779;23;20204;-81
2023/02/07 03:27:27;;;;;;;11.80;9.13;;;;;;;-1.28;66.45;97376.47;6069111;23;20376;-81
2023/02/07 03:29:57;;;;;;;12.40;8.87;;;;;;;-1.35;67.22;97377.63;6053605;23;20256;-82
2023/02/07 03:32:28;;;;;;;12.70;9.90;;;;;;;-1.36;67.00;97369.22;6067032;23;20215;-81
2023/02/07 03:34:59;;;;;;;12.53;9.27;;;;;;;-1.31;67.02;97364.78;6069722;23;20580;-82
2023/02/07 03:37:31;;;;;;;10.80;9.00;;;;;;;-1.17;66.65;97357.50;6068459;23;20219;-81
2023/02/07 03:39:58;;;;;;;10.27;8.63;;;;;;;-1.38;66.85;97352.47;6068690;23;20165;-81
2023/02/07 03:42:29;;;;;;;11.67;8.93;;;;;;;-1.38;66.63;97352.47;6067828;23;20746;-81
2023/02/07 03:44:58;;;;;;;12.87;8.80;;;;;;;-1.43;66.90;97353.47;6069027;23;20200;-81
2023/02/07 03:47:26;;;;;;;11.83;8.63;;;;;;;-1.34;66.47;97341.34;6068694;23;20215;-81
2023/02/07 03:49:53;;;;;;;10.97;8.83;;;;;;;-1.37;66.40;97334.72;6069519;23;20493;-81
2023/02/07 03:52:19;;;;;;;11.67;8.73;;;;;;;-1.50;66.24;97333.53;6068412;23;20208;-81
2023/02/07 03:54:47;;;;;;;13.10;8.67;;;;;;;-1.51;66.67;97349.56;6039384;23;20213;-81
2023/02/07 03:57:13;;;;;;;10.27;8.63;;;;;;;-1.45;66.28;97347.66;6065017;23;20213;-81
2023/02/07 03:59:40;;;;;;;11.60;8.73;;;;;;;-1.39;66.09;97361.75;6053662;23;20220;-81
2023/02/07 04:02:06;;;;;;;11.10;8.70;;;;;;;-1.31;65.84;97369.00;6068299;23;20205;-81
2023/02/07 04:04:33;;;;;;;10.13;8.37;;;;;;;-1.24;65.62;97376.31;6069273;23;20205;-81
2023/02/07 04:07:01;;;;;;;14.90;8.10;;;;;;;-1.22;65.45;97383.81;6068230;23;20700;-81
2023/02/07 04:09:31;;;;;;;10.93;8.50;;;;;;;-1.42;66.28;97380.38;6069155;23;20183;-81
2023/02/07 04:11:59;;;;;;;11.00;8.60;;;;;;;-1.42;66.24;97380.38;6067496;23;20208;-81
2023/02/07 04:14:25;;;;;;;11.10;8.67;;;;;;;-1.40;66.00;97388.72;6068245;23;20204;-81
2023/02/07 04:16:52;;;;;;;11.20;8.83;;;;;;;-1.50;66.55;97376.47;6068046;23;20575;-81
2023/02/07 04:19:18;;;;;;;11.97;8.63;;;;;;;-1.59;66.72;97375.13;6068971;23;20255;-81
2023/02/07 04:21:44;;;;;;;13.40;8.67;;;;;;;-1.56;66.60;97362.41;6068109;23;20212;-81
2023/02/07 04:24:12;;;;;;;12.30;8.27;;;;;;;-1.53;66.43;97344.59;6068551;23;20215;-81
2023/02/07 04:26:38;;;;;;;11.83;9.37;;;;;;;-1.73;67.10;97345.34;6068237;23;20208;-81
2023/02/07 04:29:07;;;;;;;10.03;8.70;;;;;;;-1.67;67.38;97346.81;6068441;23;20323;-81
2023/02/07 04:31:34;;;;;;;10.50;8.87;;;;;;;-1.52;66.57;97350.44;6068140;23;20668;-81
2023/02/07 04:34:00;;;;;;;11.47;8.80;;;;;;;-1.64;66.88;97353.47;6053155;23;20232;-81
2023/02/07 04:36:28;;;;;;;12.17;9.00;;;;;;;-1.58;66.93;97343.97;6067965;23;20738;-81
2023/02/07 04:38:55;;;;;;;15.17;9.83;;;;;;;-1.69;66.78;97340.19;6022949;23;20215;-81
2023/02/07 04:41:21;;;;;;;11.93;8.80;;;;;;;-1.88;67.46;97335.81;6064703;23;20177;-82
2023/02/07 04:43:47;;;;;;;12.50;9.00;;;;;;;-1.86;67.89;97320.63;6068141;23;20197;-81
2023/02/07 04:46:15;;;;;;;11.27;9.03;;;;;;;-1.85;68.16;97312.19;6068094;23;20204;-81
2023/02/07 04:48:42;;;;;;;12.03;9.27;;;;;;;-1.79;67.40;97312.78;6069344;23;20455;-81
2023/02/07 04:51:08;;;;;;;14.40;9.57;;;;;;;-1.77;67.86;97313.53;6068962;23;20181;-81
2023/02/07 04:53:35;;;;;;;15.07;9.27;;;;;;;-2.00;68.54;97321.16;6067406;23;20219;-81
2023/02/07 04:56:01;;;;;;;11.73;8.67;;;;;;;-2.01;68.85;97313.63;6068264;23;20185;-81
2023/02/07 04:58:28;;;;;;;12.93;8.87;;;;;;;-2.03;68.58;97318.72;6067354;23;20209;-81
2023/02/07 05:00:54;;;;;;;18.77;9.23;;;;;;;-2.12;69.38;97324.94;6052302;23;20212;-81
2023/02/07 05:03:22;;;;;;;10.83;9.00;;;;;;;-2.20;69.61;97328.63;6068283;23;20693;-81
2023/02/07 05:05:48;;;;;;;11.87;8.93;;;;;;;-2.24;69.72;97322.88;6067862;23;20180;-81
2023/02/07 05:08:15;;;;;;;11.53;9.47;;;;;;;-2.11;69.27;97316.47;6067997;23;20216;-81
2023/02/07 05:10:41;;;;;;;11.33;8.53;;;;;;;-2.20;69.47;97321.88;6069177;23;20177;-81
2023/02/07 05:13:08;;;;;;;15.53;10.10;;;;;;;-2.21;69.74;97334.56;6068232;23;20208;-81
2023/02/07 05:15:35;;;;;;;13.10;9.77;;;;;;;-2.13;69.54;97340.97;6052652;23;20216;-81
2023/02/07 05:18:01;;;;;;;13.43;9.10;;;;;;;-1.95;69.04;97333.59;6067173;23;20212;-81
2023/02/07 05:20:29;;;;;;;13.40;9.40;;;;;;;-1.90;69.18;97337.59;6037285;23;20215;-81
2023/02/07 05:22:55;;;;;;;13.77;9.37;;;;;;;-1.89;68.69;97345.97;6063681;23;20248;-81
2023/02/07 05:25:22;;;;;;;12.57;10.03;;;;;;;-1.82;68.70;97339.84;6067764;23;20585;-81
2023/02/07 05:27:48;;;;;;;13.47;9.57;;;;;;;-1.62;68.44;97342.41;6067162;23;20213;-81
2023/02/07 05:30:15;;;;;;;11.10;8.83;;;;;;;-1.58;68.06;97345.66;6066491;23;20191;-81
2023/02/07 05:35:25;;;;;;;14.70;9.70;;;;;;;-1.26;66.63;97365.44;6068308;23;20161;-83
2023/02/07 05:37:53;;;;;;;10.47;8.87;;;;;;;-1.29;66.46;97362.19;6067805;23;20231;-81
2023/02/07 05:40:20;;;;;;;11.30;9.10;;;;;;;-1.18;66.03;97372.72;6052161;23;20208;-81
2023/02/07 05:42:46;;;;;;;10.60;8.60;;;;;;;-1.23;66.33;97369.53;6068177;23;20227;-81
2023/02/07 05:45:12;;;;;;;11.73;9.53;;;;;;;-1.24;65.87;97370.44;6070269;23;20187;-81
2023/02/07 05:47:39;;;;;;;12.20;9.83;;;;;;;-1.36;66.44;97370.91;6069153;23;20216;-81
2023/02/07 05:50:06;;;;;;;11.57;9.30;;;;;;;-1.73;67.01;97365.53;6069563;23;20185;-81
2023/02/07 05:52:33;;;;;;;12.67;9.00;;;;;;;-1.83;67.67;97364.25;6068951;23;20204;-81
2023/02/07 05:55:00;;;;;;;11.60;9.47;;;;;;;-1.85;67.81;97373.56;6069605;23;20208;-81
2023/02/07 05:57:27;;;;;;;13.97;9.03;;;;;;;-1.72;67.17;97368.88;6070032;23;20208;-84
2023/02/07 05:59:53;;;;;;;15.80;9.20;;;;;;;-1.92;67.35;97377.19;6065621;23;20180;-81
2023/02/07 06:02:20;;;;;;;11.87;9.20;;;;;;;-1.87;67.71;97364.41;6066372;23;20210;-81
2023/02/07 06:04:46;;;;;;;14.00;9.73;;;;;;;-1.99;67.86;97370.75;6054628;23;20216;-81
2023/02/07 06:07:13;;;;;;;10.60;8.40;;;;;;;-1.98;67.85;97369.88;6069276;23;20208;-81
2023/02/07 06:09:39;;;;;;;12.50;9.80;;;;;;;-1.87;67.84;97372.00;6070172;23;20185;-81
2023/02/07 06:12:07;;;;;;;12.77;9.57;;;;;;;-1.91;67.57;97370.44;6069296;23;20216;-81
2023/02/07 06:14:34;;;;;;;11.23;9.27;;;;;;;-2.01;67.69;97371.69;6038970;23;20209;-81
2023/02/07 06:17:00;;;;;;;12.97;9.73;;;;;;;-2.00;68.18;97381.72;6066619;23;20213;-81
2023/02/07 06:19:26;;;;;;;12.13;8.93;;;;;;;-2.12;68.18;97380.44;6069018;23;20181;-81
2023/02/07 06:21:53;;;;;;;11.83;8.70;;;;;;;-2.13;68.04;97378.81;6069228;23;20256;-81
2023/02/07 06:24:21;;;;;;;16.97;9.97;;;;;;;-1.95;78.93;97391.66;6070634;23;20580;-82
2023/02/07 06:26:48;;;;;;;16.40;9.90;;;;;;;-1.92;75.10;97389.81;6069720;23;20211;-81
2023/02/07 06:29:15;;;;;;;11.73;8.53;;;;;;;-1.92;69.43;97384.78;6068799;23;20743;-81
2023/02/07 06:31:42;;;;;;;39.47;25.67;;;;;;;-1.86;68.43;97382.03;6067314;23;20213;-81
2023/02/07 06:34:08;;;;;;;11.27;8.93;;;;;;;-2.04;68.71;97386.94;6053077;23;20768;-81
2023/02/07 06:36:35;;;;;;;11.87;8.30;;;;;;;-2.22;69.02;97390.94;6069596;23;20208;-81
2023/02/07 06:39:02;;;;;;;12.00;8.80;;;;;;;-2.27;69.01;97381.00;6069973;23;20176;-81
2023/02/07 06:41:29;;;;;;;10.77;8.03;;;;;;;-2.18;69.19;97388.25;6068254;23;20184;-81
2023/02/07 06:43:55;;;;;;;11.57;8.97;;;;;;;-2.13;68.88;97388.91;6069353;23;20197;-82
2023/02/07 06:46:23;;;;;;;12.50;9.13;;;;;;;-2.17;68.28;97384.84;6069157;23;20586;-81
2023/02/07 06:48:49;;;;;;;14.53;8.80;;;;;;;-2.14;68.32;97378.88;6069879;23;20177;-81
2023/02/07 06:51:16;;;;;;;11.13;8.73;;;;;;;-2.21;68.92;97382.47;6068324;23;20181;-81
2023/02/07 06:53:42;;;;;;;11.87;8.57;;;;;;;-2.15;67.99;97382.28;6069196;23;20204;-81
2023/02/07 06:56:08;;;;;;;11.10;8.83;;;;;;;-2.26;68.22;97399.47;6070005;23;20191;-81
2023/02/07 06:58:37;;;;;;;13.27;8.90;;;;;;;-2.20;68.50;97406.84;6069200;23;20208;-81
2023/02/07 07:01:04;;;;;;;13.47;8.40;;;;;;;-2.46;69.16;97392.59;6071163;23;20207;-81
2023/02/07 07:03:32;;;;;;;10.93;8.50;;;;;;;-2.38;69.04;97407.47;6067866;23;20212;-81
2023/02/07 07:05:59;;;;;;;15.20;8.37;;;;;;;-2.23;68.52;97409.47;6069614;23;20177;-81
2023/02/07 07:08:26;;;;;;;11.57;8.40;;;;;;;-2.05;67.76;97396.19;6068390;23;20205;-81
2023/02/07 07:10:53;;;;;;;10.30;8.17;;;;;;;-1.87;67.13;97399.75;6068798;23;20183;-81
2023/02/07 07:13:20;;;;;;;15.33;8.90;;;;;;;-1.67;66.79;97388.91;6067430;23;20235;-81
2023/02/07 07:15:46;;;;;;;13.63;8.60;;;;;;;-1.78;66.47;97396.91;6069313;23;20236;-82
2023/02/07 07:18:13;;;;;;;11.70;8.57;;;;;;;-1.42;65.64;97394.69;6067855;23;20204;-82
2023/02/07 07:20:41;;;;;;;11.00;8.67;;;;;;;-1.11;65.63;97392.63;6037271;23;20213;-82
2023/02/07 07:23:07;;;;;;;11.60;8.40;;;;;;;-0.83;64.07;97391.53;6065035;23;20212;-82
2023/02/07 07:25:34;;;;;;;10.00;8.10;;;;;;;-0.69;62.96;97389.25;6068521;23;20886;-81
2023/02/07 07:28:00;;;;;;;11.33;8.77;;;;;;;-0.42;62.79;97398.22;6068760;23;20209;-82
2023/02/07 07:30:27;;;;;;;9.73;8.33;;;;;;;0.00;61.90;97403.13;6067363;23;20192;-81
2023/02/07 07:32:53;;;;;;;13.47;9.17;;;;;;;0.30;60.02;97407.75;6069248;23;20209;-81
2023/02/07 07:35:19;;;;;;;12.37;8.97;;;;;;;0.51;59.70;97395.81;6069249;23;20184;-82
2023/02/07 07:37:47;;;;;;;13.40;9.43;;;;;;;0.67;59.06;97402.66;6069645;23;20213;-82
2023/02/07 07:40:14;;;;;;;14.87;9.07;;;;;;;1.07;57.73;97402.50;6054280;23;20289;-82
2023/02/07 07:42:40;;;;;;;13.27;9.03;;;;;;;1.50;56.92;97391.06;6067631;23;20215;-82
2023/02/07 07:45:08;;;;;;;11.07;8.63;;;;;;;1.61;55.90;97399.78;6052776;23;20217;-82
2023/02/07 07:47:35;;;;;;;11.87;9.43;;;;;;;1.32;55.89;97388.56;6067354;23;20209;-81
2023/02/07 07:50:01;;;;;;;14.40;11.17;;;;;;;1.30;56.36;97385.25;6068874;23;20207;-81
2023/02/07 07:52:28;;;;;;;11.63;9.30;;;;;;;1.12;56.49;97385.34;6067650;23;20217;-82
2023/02/07 07:54:55;;;;;;;9.90;8.57;;;;;;;1.16;58.24;97374.13;6068810;23;20211;-82
2023/02/07 07:57:26;;;;;;;10.70;8.93;;;;;;;0.85;56.49;97374.78;6068969;23;20216;-81
2023/02/07 07:59:53;;;;;;;10.03;8.93;;;;;;;0.96;56.98;97372.59;6069343;23;20501;-82
2023/02/07 08:02:19;;;;;;;12.77;9.17;;;;;;;0.96;56.99;97362.44;6068188;23;20212;-81
2023/02/07 08:04:46;;;;;;;10.73;8.70;;;;;;;1.15;56.40;97364.91;6068965;23;20754;-82
2023/02/07 08:07:13;;;;;;;9.93;8.47;;;;;;;1.36;56.09;97379.88;6070056;23;20318;-82
2023/02/07 08:09:39;;;;;;;10.93;9.00;;;;;;;1.44;56.02;97373.59;6035379;23;20219;-82
2023/02/07 08:12:07;;;;;;;11.47;9.53;;;;;;;1.72;55.86;97359.47;6069678;23;20212;-81
2023/02/07 08:14:34;;;;;;;11.73;9.90;;;;;;;1.54;55.93;97373.06;6070556;23;20311;-81
2023/02/07 08:17:00;;;;;;;11.27;9.10;;;;;;;1.63;55.17;97376.84;6068894;23;20576;-81
2023/02/07 08:19:26;;;;;;;12.47;9.00;;;;;;;1.34;55.81;97380.88;6069729;23;20501;-81
2023/02/07 08:21:53;;;;;;;13.97;9.97;;;;;;;1.24;55.78;97388.09;6069684;23;20220;-81
2023/02/07 08:24:19;;;;;;;14.13;9.40;;;;;;;1.42;56.69;97380.47;6070050;23;20201;-81
2023/02/07 08:26:48;;;;;;;14.23;9.27;;;;;;;1.90;55.33;97370.38;6068267;23;20213;-84
2023/02/07 08:29:16;;;;;;;12.87;9.40;;;;;;;1.90;54.98;97365.31;6070074;23;20188;-81
2023/02/07 08:31:42;;;;;;;9.90;8.53;;;;;;;1.93;55.29;97367.66;6068702;23;20208;-81
2023/02/07 08:34:10;;;;;;;10.97;8.77;;;;;;;2.43;53.87;97365.00;6069987;23;20276;-82
2023/02/07 08:36:38;;;;;;;11.67;9.47;;;;;;;2.52;53.31;97365.41;6070858;23;20735;-82
2023/02/07 08:39:04;;;;;;;11.77;9.83;;;;;;;2.47;53.37;97365.66;6071078;23;20228;-82
2023/02/07 08:41:31;;;;;;;12.93;9.60;;;;;;;2.44;53.85;97360.75;6069872;23;20283;-82
2023/02/07 08:43:57;;;;;;;12.27;10.00;;;;;;;2.54;53.47;97361.88;6070566;23;20207;-81
2023/02/07 08:46:25;;;;;;;11.43;10.00;;;;;;;2.66;53.53;97370.56;6069697;23;20541;-82
2023/02/07 08:48:51;;;;;;;11.77;9.67;;;;;;;2.39;53.87;97372.88;6053165;23;20692;-82
2023/02/07 08:51:18;;;;;;;13.57;10.10;;;;;;;2.67;53.95;97377.31;6068980;23;20181;-81
2023/02/07 08:53:44;;;;;;;11.57;9.50;;;;;;;3.01;53.47;97376.25;6068910;23;20248;-81
2023/02/07 08:56:11;;;;;;;10.57;9.20;;;;;;;3.11;52.32;97379.91;6069022;23;20202;-81
2023/02/07 08:58:38;;;;;;;10.07;9.07;;;;;;;3.27;52.63;97379.88;6068983;23;20212;-82
2023/02/07 09:01:09;;;;;;;11.47;10.00;;;;;;;3.35;52.27;97385.34;6069509;23;20240;-82
2023/02/07 09:03:37;;;;;;;13.37;9.70;;;;;;;3.33;52.19;97377.78;6069204;23;20249;-82
2023/02/07 09:06:04;;;;;;;12.00;9.70;;;;;;;3.00;52.21;97377.97;6069585;23;20532;-81
2023/02/07 09:08:31;;;;;;;11.43;9.47;;;;;;;2.71;52.89;97382.13;6068262;23;20209;-81
2023/02/07 09:10:57;;;;;;;11.23;9.27;;;;;;;2.64;53.84;97372.38;6069335;23;20184;-81
2023/02/07 09:13:24;;;;;;;12.57;9.60;;;;;;;3.17;53.67;97381.28;6068993;23;20213;-81
2023/02/07 09:15:55;;;;;;;14.07;9.40;;;;;;;3.37;53.12;97378.44;6070000;23;20181;-82
2023/02/07 09:18:21;;;;;;;11.50;9.13;;;;;;;3.56;52.29;97389.19;6068417;23;20204;-82
2023/02/07 09:20:49;;;;;;;11.53;9.33;;;;;;;3.98;51.72;97392.69;6070459;23;20183;-83
2023/02/07 09:23:18;;;;;;;10.50;9.07;;;;;;;4.08;50.93;97391.22;6067656;23;20220;-82
2023/02/07 09:25:46;;;;;;;10.97;9.27;;;;;;;3.65;51.09;97406.50;6067390;23;20187;-83
2023/02/07 09:28:13;;;;;;;10.83;9.70;;;;;;;3.69;52.14;97402.84;6068264;23;20212;-82
2023/02/07 09:30:40;;;;;;;10.97;9.50;;;;;;;3.55;51.78;97402.84;6067327;23;20189;-82
2023/02/07 09:33:07;;;;;;;15.20;9.53;;;;;;;3.77;51.94;97385.41;6068207;23;20209;-82
2023/02/07 09:35:37;;;;;;;11.77;9.40;;;;;;;3.83;51.39;97380.88;6039528;23;20551;-82
2023/02/07 09:38:05;;;;;;;12.53;9.53;;;;;;;3.41;52.12;97390.91;6066961;23;20219;-82
2023/02/07 09:40:34;;;;;;;13.33;9.97;;;;;;;3.48;52.86;97397.28;6069163;23;20176;-82
2023/02/07 09:43:13;;;;;;;12.20;9.87;;;;;;;3.58;52.27;97400.13;6067491;23;20208;-82
2023/02/07 09:45:45;;;;;;;12.07;9.73;;;;;;;3.70;51.86;97403.69;6068613;23;20613;-82
2023/02/07 09:48:18;;;;;;;13.87;10.27;;;;;;;2.96;52.68;97401.94;6067962;23;20279;-82
2023/02/07 09:50:50;;;;;;;11.67;9.77;;;;;;;3.07;53.81;97403.91;6068831;23;20166;-82
2023/02/07 09:53:23;;;;;;;12.53;10.17;;;;;;;3.26;53.83;97401.16;6068615;23;20212;-82
2023/02/07 09:55:54;;;;;;;12.20;9.50;;;;;;;3.62;52.52;97403.31;6069201;23;20165;-82
2023/02/07 09:58:32;;;;;;;12.83;10.17;;;;;;;3.51;52.38;97403.91;6068449;23;20811;-82
2023/02/07 10:01:02;;;;;;;12.13;10.03;;;;;;;3.51;52.85;97393.72;6069574;23;20236;-82
2023/02/07 10:03:29;;;;;;;12.80;10.50;;;;;;;3.35;53.00;97396.34;6067719;23;20217;-82
2023/02/07 10:06:00;;;;;;;12.87;10.27;;;;;;;3.79;52.67;97395.50;6069330;23;20181;-82
2023/02/07 10:08:28;;;;;;;11.03;9.77;;;;;;;4.24;52.30;97401.31;6068706;23;20204;-82
2023/02/07 10:11:10;;;;;;;12.37;10.00;;;;;;;4.16;51.47;97397.50;6038593;23;20204;-82
2023/02/07 10:13:50;;;;;;;11.37;9.83;;;;;;;4.46;51.51;97391.44;6068135;23;20219;-82
2023/02/07 10:16:47;;;;;;;14.03;9.37;;;;;;;4.14;50.95;97396.78;6068534;23;20162;-83
2023/02/07 10:19:22;;;;;;;13.63;10.87;;;;;;;3.96;52.11;97395.31;6068188;23;20201;-82
2023/02/07 10:21:59;;;;;;;12.43;9.60;;;;;;;4.09;51.07;97395.41;6069355;23;20211;-82
2023/02/07 10:24:44;;;;;;;12.77;10.37;;;;;;;3.96;51.86;97384.31;6069420;23;20201;-82
2023/02/07 10:27:13;;;;;;;12.73;9.80;;;;;;;3.97;51.57;97381.69;6069477;23;20676;-82
2023/02/07 10:30:03;;;;;;;13.63;9.90;;;;;;;4.04;51.27;97382.13;6069179;23;20664;-82
2023/02/07 10:32:33;;;;;;;11.87;10.27;;;;;;;4.11;52.11;97378.28;6068505;23;20555;-82
2023/02/07 10:35:07;;;;;;;10.70;9.60;;;;;;;4.47;51.68;97382.88;6071588;23;20208;-82
2023/02/07 10:37:37;;;;;;;11.17;9.87;;;;;;;4.64;50.18;97385.19;6070970;23;20208;-82
2023/02/07 10:40:12;;;;;;;10.67;9.50;;;;;;;4.22;50.81;97383.59;6054409;23;20221;-83
2023/02/07 10:42:42;;;;;;;11.03;9.60;;;;;;;3.97;50.94;97378.31;6068474;23;20235;-82
2023/02/07 10:45:13;;;;;;;11.70;9.40;;;;;;;3.78;51.53;97389.59;6071277;23;20197;-82
2023/02/07 10:47:41;;;;;;;13.60;9.80;;;;;;;4.04;51.81;97392.34;6070073;23;20208;-82
2023/02/07 10:50:10;;;;;;;12.77;9.63;;;;;;;4.23;50.98;97390.31;6070578;23;20176;-82
2023/02/07 10:52:41;;;;;;;15.90;10.90;;;;;;;4.03;51.63;97388.16;6068889;23;20232;-82
2023/02/07 10:55:13;;;;;;;11.60;10.17;;;;;;;4.01;51.97;97397.63;6056820;23;20223;-82
2023/02/07 10:57:40;;;;;;;11.27;10.07;;;;;;;3.90;51.81;97389.75;6072257;23;20204;-82
2023/02/07 11:00:22;;;;;;;12.73;9.40;;;;;;;4.05;51.36;97391.41;6072509;23;20524;-83
2023/02/07 11:02:50;;;;;;;12.47;10.00;;;;;;;3.95;51.64;97387.78;6071783;23;20260;-82
2023/02/07 11:05:38;;;;;;;12.03;9.57;;;;;;;4.42;51.26;97387.47;6072470;23;20181;-83
2023/02/07 11:08:17;;;;;;;11.83;9.33;;;;;;;4.79;50.17;97389.38;6072113;23;20225;-82
2023/02/07 11:10:46;;;;;;;11.37;9.33;;;;;;;5.05;50.31;97387.69;6070871;23;20161;-82
2023/02/07 11:13:14;;;;;;;11.10;9.03;;;;;;;5.24;49.12;97389.88;6069310;23;20209;-82
2023/02/07 11:15:48;;;;;;;11.77;9.03;;;;;;;5.18;49.02;97398.78;6072027;23;20177;-82
2023/02/07 11:18:29;;;;;;;13.97;9.30;;;;;;;5.26;48.65;97392.34;6069318;23;20215;-82
2023/02/07 11:20:55;;;;;;;9.00;8.10;;;;;;;4.78;48.44;97390.28;6068243;23;20168;-82
2023/02/07 11:23:23;;;;;;;13.50;8.83;;;;;;;4.66;49.27;97385.94;6066787;23;20217;-82
2023/02/07 11:25:55;;;;;;;15.43;9.70;;;;;;;4.45;49.78;97377.06;6066926;23;20184;-82
2023/02/07 11:28:24;;;;;;;12.00;9.30;;;;;;;4.31;50.74;97383.00;6064478;23;20215;-82
2023/02/07 11:30:56;;;;;;;11.13;8.97;;;;;;;4.19;50.58;97381.22;6066110;23;20255;-82
2023/02/07 11:33:26;;;;;;;11.63;9.23;;;;;;;4.04;51.10;97379.59;6068252;23;20239;-82
2023/02/07 11:36:14;;;;;;;10.87;8.73;;;;;;;4.48;50.97;97375.13;6067551;23;20161;-82
2023/02/07 11:38:45;;;;;;;13.80;8.63;;;;;;;4.84;50.19;97374.56;6069888;23;20195;-82